Weather History for KLYV - December, 2012

Change the Weather History Date:

Monday, December 3, 2012

  Actual Average (KFSD) Record (KFSD)
Temperature  
Mean Temperature 42 °F 23 °F  
Max Temperature 55 °F 32 °F 63 °F (1998)
Min Temperature 30 °F 14 °F -10 °F (1919)
Degree Days  
Heating Degree Days 22 42  
Month to date heating degree days 125  
Since 1 July heating degree days 1837  
Cooling Degree Days 0 0  
Month to date cooling degree days 0  
Year to date cooling degree days 690  
Moisture  
Dew Point 32 °F    
Average Humidity 66    
Maximum Humidity 93    
Minimum Humidity 30    
Precipitation  
Precipitation 0.00 in 0.03 in 1.41 in (1955)
Month to date precipitation 0.09  
Year to date precipitation 25.78  
Snow  
Snow 0.00 in 0.30 in 10.90 in (1955)
Month to date snowfall 0.8  
Since 1 July snowfall 9.5  
Snow Depth -    
Sea Level Pressure  
Sea Level Pressure 29.76 in    
Wind  
Wind Speed 13 mph (West)    
Max Wind Speed 25 mph    
Max Gust Speed 39 mph    
Visibility 7 miles    
Events      
T = Trace of Precipitation, MM = Missing Value Source: NWS Daily Summary

Daily Weather History Graph

Daily Weather History Graph

Search for Another Location

Airport or City:

Trip Planner

Search our weather history database for the weather conditions in past years. The results will help you decide how hot, cold, wet, or windy it might be!

Date:

Astronomy

Dec. 03, 2012 Rise Set
Actual Time 7:41 AM CST 4:48 PM CST
Civil Twilight 7:08 AM CST 5:20 PM CST
Nautical Twilight 6:32 AM CST 5:56 PM CST
Astronomical Twilight 5:58 AM CST 6:31 PM CST
Moon 9:41 PM CST (12/3) 11:00 AM CST (12/3)
Length of Visible Light 10h 12m
Length of Day
9h 07m
Waning Gibbous, 78% of the Moon is Illuminated
Dec 3
Waning Gibbous
Dec 6
Last Quarter
Dec 13
New
Dec 19
First Quarter
Dec 28
Full

Hourly Weather History & Observations

Time (CST) Temp. Windchill Dew Point Humidity Pressure Visibility Wind Dir Wind Speed Gust Speed Precip Events Conditions
12:15 AM 44.6 °F 38.1 °F 37.4 °F 76% 29.69 in 7.0 mi South 13.8 mph - N/A   Clear
12:35 AM 42.8 °F 37.0 °F 37.4 °F 81% 29.69 in 7.0 mi South 10.4 mph - N/A   Clear
12:54 AM 42.8 °F 37.0 °F 37.4 °F 81% 29.67 in 7.0 mi South 10.4 mph - N/A   Clear
1:15 AM 42.8 °F 35.8 °F 37.4 °F 81% 29.66 in 7.0 mi South 13.8 mph - N/A   Clear
1:34 AM 42.8 °F 35.1 °F 37.4 °F 81% 29.65 in 7.0 mi South 16.1 mph 20.7 mph N/A   Clear
1:55 AM 42.8 °F 37.5 °F 37.4 °F 81% 29.65 in 7.0 mi South 9.2 mph - N/A   Clear
2:15 AM 42.8 °F 37.5 °F 37.4 °F 81% 29.64 in 5.0 mi SSE 9.2 mph - N/A   Haze
2:35 AM 42.8 °F 38.0 °F 37.4 °F 81% 29.63 in 5.0 mi SSE 8.1 mph - N/A   Clear
2:55 AM 41.0 °F 34.3 °F 37.4 °F 87% 29.63 in 4.0 mi SSE 11.5 mph - N/A   Clear
3:14 AM 41.0 °F 34.3 °F 37.4 °F 87% 29.61 in 4.0 mi South 11.5 mph - N/A   Clear
3:35 AM 41.0 °F 33.9 °F 39.2 °F 93% 29.60 in 3.0 mi SSE 12.7 mph 17.3 mph N/A   Clear
3:54 AM 42.8 °F 36.6 °F 39.2 °F 87% 29.60 in 3.0 mi South 11.5 mph - N/A   Mostly Cloudy
4:15 AM 41.0 °F 34.3 °F 39.2 °F 93% 29.60 in 2.5 mi South 11.5 mph - N/A   Overcast
4:35 AM 41.0 °F 36.4 °F 39.2 °F 93% 29.60 in 2.0 mi South 6.9 mph - N/A   Overcast
4:54 AM 41.0 °F 35.2 °F 39.2 °F 93% 29.58 in 1.8 mi South 9.2 mph - N/A   Overcast
5:15 AM 41.0 °F 35.2 °F 39.2 °F 93% 29.57 in 1.5 mi South 9.2 mph - N/A   Overcast
5:35 AM 42.8 °F 35.4 °F 41.0 °F 93% 29.57 in 0.8 mi South 15.0 mph - N/A   Overcast
6:15 AM 44.6 °F 37.2 °F 42.8 °F 93% 29.54 in 0.8 mi South 17.3 mph 21.9 mph N/A   Overcast
6:35 AM 44.6 °F 37.4 °F 42.8 °F 93% 29.54 in 1.5 mi South 16.1 mph 23.0 mph N/A   Overcast
6:54 AM 44.6 °F 36.9 °F 42.8 °F 93% 29.55 in 1.8 mi South 18.4 mph 23.0 mph N/A   Overcast
7:15 AM 44.6 °F 38.1 °F 42.8 °F 93% 29.54 in 2.0 mi South 13.8 mph - N/A   Overcast
7:34 AM 44.6 °F 38.8 °F 42.8 °F 93% 29.57 in 2.0 mi SSW 11.5 mph 17.3 mph N/A   Overcast
7:55 AM 44.6 °F 38.4 °F 42.8 °F 93% 29.59 in 2.5 mi SSW 12.7 mph - N/A   Overcast
8:15 AM 44.6 °F 39.2 °F 42.8 °F 93% 29.59 in 1.5 mi SW 10.4 mph - N/A   Overcast
8:34 AM 44.6 °F 39.2 °F 42.8 °F 93% 29.60 in 1.0 mi SW 10.4 mph - N/A   Overcast
9:15 AM 44.6 °F 39.2 °F 42.8 °F 93% 29.61 in 2.5 mi WSW 10.4 mph - N/A   Scattered Clouds
9:34 AM 44.6 °F 38.8 °F 41.0 °F 87% 29.63 in 3.0 mi West 11.5 mph - N/A   Clear
9:55 AM 44.6 °F 38.4 °F 41.0 °F 87% 29.63 in 5.0 mi WNW 12.7 mph - N/A   Clear
10:15 AM 48.2 °F - 41.0 °F 76% 29.64 in 10.0 mi NW 11.5 mph 19.6 mph N/A   Clear
10:34 AM 48.2 °F - 37.4 °F 66% 29.65 in 10.0 mi NW 17.3 mph 21.9 mph N/A   Clear
10:55 AM 50.0 °F - 37.4 °F 62% 29.66 in 10.0 mi NNW 15.0 mph - N/A   Clear
11:15 AM 50.0 °F - 39.2 °F 66% 29.67 in 10.0 mi NNW 16.1 mph 20.7 mph N/A   Clear
11:34 AM 53.6 °F - 39.2 °F 58% 29.69 in 10.0 mi NNW 19.6 mph 27.6 mph N/A   Clear
11:55 AM 53.6 °F - 35.6 °F 51% 29.69 in 10.0 mi NNW 24.2 mph 34.5 mph N/A   Clear
12:15 PM 53.6 °F - 35.6 °F 51% 29.71 in 10.0 mi NNW 24.2 mph 39.1 mph N/A   Mostly Cloudy
12:34 PM 51.8 °F - 35.6 °F 54% 29.72 in 10.0 mi NNW 21.9 mph 33.4 mph N/A   Overcast
12:55 PM 53.6 °F - 35.6 °F 51% 29.73 in 10.0 mi NNW 20.7 mph 29.9 mph N/A   Scattered Clouds
1:14 PM 53.6 °F - 32.0 °F 44% 29.75 in 10.0 mi NW 25.3 mph 34.5 mph N/A   Clear
1:35 PM 53.6 °F - 32.0 °F 44% 29.75 in 10.0 mi NW 23.0 mph 28.8 mph N/A   Clear
1:55 PM 53.6 °F - 28.4 °F 38% 29.76 in 10.0 mi NNW 18.4 mph 33.4 mph N/A   Clear
2:14 PM 53.6 °F - 28.4 °F 38% 29.78 in 10.0 mi NW 21.9 mph 29.9 mph N/A   Clear
2:35 PM 53.6 °F - 28.4 °F 38% 29.79 in 10.0 mi NW 17.3 mph 28.8 mph N/A   Clear
2:54 PM 55.4 °F - 28.4 °F 36% 29.80 in 10.0 mi NW 20.7 mph 25.3 mph N/A   Clear
3:15 PM 55.4 °F - 26.6 °F 33% 29.80 in 10.0 mi NW 19.6 mph 24.2 mph N/A   Clear
3:35 PM 55.4 °F - 26.6 °F 33% 29.82 in 10.0 mi NW 18.4 mph 26.5 mph N/A   Clear
3:55 PM 53.6 °F - 23.0 °F 30% 29.84 in 10.0 mi WNW 20.7 mph 29.9 mph N/A   Clear
4:15 PM 53.6 °F - 23.0 °F 30% 29.85 in 10.0 mi NW 18.4 mph 27.6 mph N/A   Clear
4:35 PM 50.0 °F - 23.0 °F 35% 29.86 in 10.0 mi WNW 12.7 mph 17.3 mph N/A   Clear
4:55 PM 50.0 °F - 21.2 °F 32% 29.88 in 10.0 mi NW 11.5 mph - N/A   Clear
5:15 PM 46.4 °F 41.1 °F 21.2 °F 37% 29.89 in 10.0 mi WNW 11.5 mph - N/A   Clear
5:35 PM 44.6 °F 39.7 °F 23.0 °F 43% 29.90 in 10.0 mi West 9.2 mph - N/A   Clear
5:55 PM 42.8 °F 37.0 °F 23.0 °F 46% 29.91 in 10.0 mi West 10.4 mph - N/A   Clear
6:15 PM 41.0 °F 34.3 °F 23.0 °F 49% 29.92 in 10.0 mi West 11.5 mph - N/A   Clear
6:35 PM 42.8 °F 36.6 °F 23.0 °F 46% 29.93 in 10.0 mi West 11.5 mph - N/A   Clear
6:55 PM 41.0 °F 34.7 °F 23.0 °F 49% 29.94 in 10.0 mi West 10.4 mph - N/A   Clear
7:14 PM 41.0 °F 34.3 °F 23.0 °F 49% 29.95 in 10.0 mi West 11.5 mph - N/A   Clear
7:35 PM 37.4 °F 29.3 °F 23.0 °F 56% 29.97 in 10.0 mi West 12.7 mph - N/A   Clear
7:55 PM 39.2 °F 32.0 °F 23.0 °F 52% 29.96 in 10.0 mi West 11.5 mph - N/A   Clear
8:15 PM 39.2 °F 33.0 °F 21.2 °F 49% 29.97 in 10.0 mi West 9.2 mph - N/A   Clear
8:35 PM 35.6 °F - 23.0 °F 60% 29.98 in 10.0 mi Calm Calm - N/A   Clear
8:55 PM 37.4 °F 29.8 °F 23.0 °F 56% 29.98 in 10.0 mi West 11.5 mph - N/A   Clear
9:15 PM 35.6 °F 28.6 °F 21.2 °F 56% 29.99 in 10.0 mi West 9.2 mph - N/A   Clear
9:35 PM 32.0 °F - 21.2 °F 64% 29.99 in 10.0 mi Calm Calm - N/A   Clear
9:55 PM 32.0 °F - 23.0 °F 69% 30.00 in 10.0 mi Calm Calm - N/A   Clear
10:15 PM 32.0 °F - 21.2 °F 64% 30.01 in 10.0 mi Calm Calm - N/A   Clear
10:35 PM 32.0 °F 27.5 °F 21.2 °F 64% 30.01 in 10.0 mi WNW 4.6 mph - N/A   Clear
10:55 PM 32.0 °F 23.6 °F 21.2 °F 64% 30.01 in 10.0 mi WNW 10.4 mph - N/A   Clear
11:15 PM 33.8 °F - 21.2 °F 60% 30.02 in 10.0 mi Calm Calm - N/A   Clear
11:35 PM 30.2 °F - 21.2 °F 69% 30.02 in 10.0 mi Calm Calm - N/A   Clear
11:55 PM 30.2 °F 24.3 °F 21.2 °F 69% 30.03 in 10.0 mi West 5.8 mph - N/A   Clear